sensor_id;sensor_type;location;lat;lon;timestamp;temperature;humidity
43862;DHT22;29510;52.140;5.034;2023-11-21T00:01:21;7.30;99.90
43862;DHT22;29510;52.140;5.034;2023-11-21T00:11:21;7.30;99.90
43862;DHT22;29510;52.140;5.034;2023-11-21T00:21:22;7.20;99.90
43862;DHT22;29510;52.140;5.034;2023-11-21T00:31:22;7.10;99.90
43862;DHT22;29510;52.140;5.034;2023-11-21T00:41:23;6.90;99.90
43862;DHT22;29510;52.140;5.034;2023-11-21T00:51:24;6.90;99.90
43862;DHT22;29510;52.140;5.034;2023-11-21T01:01:27;6.90;99.90
43862;DHT22;29510;52.140;5.034;2023-11-21T01:11:28;6.90;99.90
43862;DHT22;29510;52.140;5.034;2023-11-21T01:21:29;6.90;99.90
43862;DHT22;29510;52.140;5.034;2023-11-21T01:31:29;7.10;99.90
43862;DHT22;29510;52.140;5.034;2023-11-21T01:41:30;7.20;99.90
43862;DHT22;29510;52.140;5.034;2023-11-21T01:51:31;7.40;99.90
43862;DHT22;29510;52.140;5.034;2023-11-21T02:01:31;7.50;99.90
43862;DHT22;29510;52.140;5.034;2023-11-21T02:11:32;7.60;99.90
43862;DHT22;29510;52.140;5.034;2023-11-21T02:21:35;7.80;99.90
43862;DHT22;29510;52.140;5.034;2023-11-21T02:31:36;7.90;99.90
43862;DHT22;29510;52.140;5.034;2023-11-21T02:41:39;7.90;99.90
43862;DHT22;29510;52.140;5.034;2023-11-21T02:51:39;8.00;99.90
43862;DHT22;29510;52.140;5.034;2023-11-21T03:01:40;8.10;99.90
43862;DHT22;29510;52.140;5.034;2023-11-21T03:11:40;8.20;99.90
43862;DHT22;29510;52.140;5.034;2023-11-21T03:21:41;8.30;99.90
43862;DHT22;29510;52.140;5.034;2023-11-21T03:31:41;8.30;99.90
43862;DHT22;29510;52.140;5.034;2023-11-21T03:41:42;8.40;99.90
43862;DHT22;29510;52.140;5.034;2023-11-21T03:51:42;8.40;99.90
43862;DHT22;29510;52.140;5.034;2023-11-21T04:01:43;8.50;99.90
43862;DHT22;29510;52.140;5.034;2023-11-21T04:11:43;8.50;99.90
43862;DHT22;29510;52.140;5.034;2023-11-21T04:21:46;8.50;99.90
43862;DHT22;29510;52.140;5.034;2023-11-21T04:31:46;8.50;99.90
43862;DHT22;29510;52.140;5.034;2023-11-21T04:41:49;8.50;99.90
43862;DHT22;29510;52.140;5.034;2023-11-21T04:51:50;8.60;99.90
43862;DHT22;29510;52.140;5.034;2023-11-21T05:01:51;8.80;99.90
43862;DHT22;29510;52.140;5.034;2023-11-21T05:11:51;8.80;99.90
43862;DHT22;29510;52.140;5.034;2023-11-21T05:21:53;8.80;99.90
43862;DHT22;29510;52.140;5.034;2023-11-21T05:31:54;8.80;99.90
43862;DHT22;29510;52.140;5.034;2023-11-21T05:41:54;8.80;99.90
43862;DHT22;29510;52.140;5.034;2023-11-21T05:51:56;8.80;99.90
43862;DHT22;29510;52.140;5.034;2023-11-21T06:01:57;8.90;99.90
43862;DHT22;29510;52.140;5.034;2023-11-21T06:11:57;9.00;99.90
43862;DHT22;29510;52.140;5.034;2023-11-21T06:21:58;9.10;99.90
43862;DHT22;29510;52.140;5.034;2023-11-21T06:31:59;9.20;99.90
43862;DHT22;29510;52.140;5.034;2023-11-21T06:42:00;9.10;99.90
43862;DHT22;29510;52.140;5.034;2023-11-21T06:52:00;9.10;99.90
43862;DHT22;29510;52.140;5.034;2023-11-21T07:02:03;9.10;99.90
43862;DHT22;29510;52.140;5.034;2023-11-21T07:12:05;9.20;99.90
43862;DHT22;29510;52.140;5.034;2023-11-21T07:22:07;9.40;99.90
43862;DHT22;29510;52.140;5.034;2023-11-21T07:32:08;9.60;99.90
43862;DHT22;29510;52.140;5.034;2023-11-21T07:42:14;9.80;99.90
43862;DHT22;29510;52.140;5.034;2023-11-21T07:52:14;9.90;99.90
43862;DHT22;29510;52.140;5.034;2023-11-21T08:02:16;10.10;99.90
43862;DHT22;29510;52.140;5.034;2023-11-21T08:12:18;10.30;99.90
43862;DHT22;29510;52.140;5.034;2023-11-21T08:22:20;10.30;99.90
43862;DHT22;29510;52.140;5.034;2023-11-21T08:32:22;10.30;99.90
43862;DHT22;29510;52.140;5.034;2023-11-21T08:42:22;10.30;99.90
43862;DHT22;29510;52.140;5.034;2023-11-21T08:52:23;10.40;99.90
43862;DHT22;29510;52.140;5.034;2023-11-21T09:02:26;10.50;99.90
43862;DHT22;29510;52.140;5.034;2023-11-21T09:12:26;10.50;99.90
43862;DHT22;29510;52.140;5.034;2023-11-21T09:22:27;10.50;99.90
43862;DHT22;29510;52.140;5.034;2023-11-21T09:32:30;10.50;99.90
43862;DHT22;29510;52.140;5.034;2023-11-21T09:42:39;10.50;99.90
43862;DHT22;29510;52.140;5.034;2023-11-21T09:53:07;10.40;99.90
43862;DHT22;29510;52.140;5.034;2023-11-21T10:03:11;10.50;99.90
43862;DHT22;29510;52.140;5.034;2023-11-21T10:13:13;10.40;99.90
43862;DHT22;29510;52.140;5.034;2023-11-21T10:23:18;10.40;99.90
43862;DHT22;29510;52.140;5.034;2023-11-21T10:33:27;10.50;99.90
43862;DHT22;29510;52.140;5.034;2023-11-21T10:43:27;10.40;99.90
43862;DHT22;29510;52.140;5.034;2023-11-21T10:53:28;10.40;99.90
43862;DHT22;29510;52.140;5.034;2023-11-21T11:03:30;10.40;99.90
43862;DHT22;29510;52.140;5.034;2023-11-21T11:13:33;10.40;99.90
43862;DHT22;29510;52.140;5.034;2023-11-21T11:23:53;10.40;99.90
43862;DHT22;29510;52.140;5.034;2023-11-21T11:33:59;10.30;99.90
43862;DHT22;29510;52.140;5.034;2023-11-21T11:54:46;10.40;99.90
43862;DHT22;29510;52.140;5.034;2023-11-21T12:04:46;10.40;99.90
43862;DHT22;29510;52.140;5.034;2023-11-21T12:14:47;10.40;99.90
43862;DHT22;29510;52.140;5.034;2023-11-21T12:24:48;10.40;99.90
43862;DHT22;29510;52.140;5.034;2023-11-21T12:34:48;10.30;99.90
43862;DHT22;29510;52.140;5.034;2023-11-21T12:45:09;10.20;99.90
43862;DHT22;29510;52.140;5.034;2023-11-21T12:55:17;10.10;99.90
43862;DHT22;29510;52.140;5.034;2023-11-21T13:05:27;10.20;99.90
43862;DHT22;29510;52.140;5.034;2023-11-21T13:15:28;10.20;99.90
43862;DHT22;29510;52.140;5.034;2023-11-21T13:25:31;10.10;99.90
43862;DHT22;29510;52.140;5.034;2023-11-21T13:35:36;10.10;99.90
43862;DHT22;29510;52.140;5.034;2023-11-21T13:45:49;10.10;99.90
43862;DHT22;29510;52.140;5.034;2023-11-21T13:55:58;10.00;99.90
43862;DHT22;29510;52.140;5.034;2023-11-21T14:05:59;10.10;99.90
43862;DHT22;29510;52.140;5.034;2023-11-21T14:16:01;10.00;99.90
43862;DHT22;29510;52.140;5.034;2023-11-21T14:26:02;10.00;99.90
43862;DHT22;29510;52.140;5.034;2023-11-21T14:36:03;9.90;99.90
43862;DHT22;29510;52.140;5.034;2023-11-21T14:46:04;9.90;99.90
43862;DHT22;29510;52.140;5.034;2023-11-21T14:56:10;9.90;99.90
43862;DHT22;29510;52.140;5.034;2023-11-21T15:06:10;9.70;99.90
43862;DHT22;29510;52.140;5.034;2023-11-21T15:16:26;9.70;99.90
43862;DHT22;29510;52.140;5.034;2023-11-21T15:26:27;9.60;99.90
43862;DHT22;29510;52.140;5.034;2023-11-21T15:36:28;9.60;99.90
43862;DHT22;29510;52.140;5.034;2023-11-21T15:46:29;9.60;99.90
43862;DHT22;29510;52.140;5.034;2023-11-21T15:56:30;9.50;99.90
43862;DHT22;29510;52.140;5.034;2023-11-21T16:06:30;9.40;99.90
43862;DHT22;29510;52.140;5.034;2023-11-21T16:16:31;9.20;99.90
43862;DHT22;29510;52.140;5.034;2023-11-21T16:26:32;9.20;79.50
43862;DHT22;29510;52.140;5.034;2023-11-21T16:36:32;9.10;63.20
43862;DHT22;29510;52.140;5.034;2023-11-21T16:46:33;9.00;66.70
43862;DHT22;29510;52.140;5.034;2023-11-21T16:56:34;8.80;69.00
43862;DHT22;29510;52.140;5.034;2023-11-21T17:06:36;8.80;76.50
43862;DHT22;29510;52.140;5.034;2023-11-21T17:16:36;8.70;75.50
43862;DHT22;29510;52.140;5.034;2023-11-21T17:26:37;8.50;84.20
43862;DHT22;29510;52.140;5.034;2023-11-21T17:36:40;8.40;94.60
43862;DHT22;29510;52.140;5.034;2023-11-21T17:46:41;8.30;93.00
43862;DHT22;29510;52.140;5.034;2023-11-21T17:56:41;8.10;97.30
43862;DHT22;29510;52.140;5.034;2023-11-21T18:06:42;8.00;99.90
43862;DHT22;29510;52.140;5.034;2023-11-21T18:16:43;7.90;99.90
43862;DHT22;29510;52.140;5.034;2023-11-21T18:26:43;7.70;99.90
43862;DHT22;29510;52.140;5.034;2023-11-21T18:36:45;7.50;98.70
43862;DHT22;29510;52.140;5.034;2023-11-21T18:46:45;7.40;99.90
43862;DHT22;29510;52.140;5.034;2023-11-21T18:56:46;7.30;99.90
43862;DHT22;29510;52.140;5.034;2023-11-21T19:06:47;7.10;99.90
43862;DHT22;29510;52.140;5.034;2023-11-21T19:16:47;7.10;99.90
43862;DHT22;29510;52.140;5.034;2023-11-21T19:26:49;7.00;99.90
43862;DHT22;29510;52.140;5.034;2023-11-21T19:36:50;7.00;99.90
43862;DHT22;29510;52.140;5.034;2023-11-21T19:46:51;6.80;99.90
43862;DHT22;29510;52.140;5.034;2023-11-21T19:56:52;6.70;99.90
43862;DHT22;29510;52.140;5.034;2023-11-21T20:06:52;6.80;99.90
43862;DHT22;29510;52.140;5.034;2023-11-21T20:16:54;6.80;99.90
43862;DHT22;29510;52.140;5.034;2023-11-21T20:26:55;6.90;99.90
43862;DHT22;29510;52.140;5.034;2023-11-21T20:36:57;6.80;99.90
43862;DHT22;29510;52.140;5.034;2023-11-21T20:46:58;6.80;99.90
43862;DHT22;29510;52.140;5.034;2023-11-21T20:56:58;6.80;99.90
43862;DHT22;29510;52.140;5.034;2023-11-21T21:06:59;6.70;99.90
43862;DHT22;29510;52.140;5.034;2023-11-21T21:17:00;6.60;99.90
43862;DHT22;29510;52.140;5.034;2023-11-21T21:27:01;6.40;99.90
43862;DHT22;29510;52.140;5.034;2023-11-21T21:37:01;6.40;99.90
43862;DHT22;29510;52.140;5.034;2023-11-21T21:47:03;6.30;99.90
43862;DHT22;29510;52.140;5.034;2023-11-21T21:57:03;6.20;99.90
43862;DHT22;29510;52.140;5.034;2023-11-21T22:07:04;6.10;99.90
43862;DHT22;29510;52.140;5.034;2023-11-21T22:17:05;6.10;99.90
43862;DHT22;29510;52.140;5.034;2023-11-21T22:27:05;6.30;99.90
43862;DHT22;29510;52.140;5.034;2023-11-21T22:37:06;6.30;99.90
43862;DHT22;29510;52.140;5.034;2023-11-21T22:47:06;6.30;99.90
43862;DHT22;29510;52.140;5.034;2023-11-21T22:57:07;6.30;99.90
43862;DHT22;29510;52.140;5.034;2023-11-21T23:07:08;6.20;99.90
43862;DHT22;29510;52.140;5.034;2023-11-21T23:17:08;6.30;99.90
43862;DHT22;29510;52.140;5.034;2023-11-21T23:27:09;6.20;99.90
43862;DHT22;29510;52.140;5.034;2023-11-21T23:37:09;6.20;99.90
43862;DHT22;29510;52.140;5.034;2023-11-21T23:47:10;6.30;99.90
43862;DHT22;29510;52.140;5.034;2023-11-21T23:57:10;6.30;99.90
